Time;durP1;ratioP1;P1;durP2;ratioP2;P2;SDS_P1;SDS_P2;PMS_P1;PMS_P2;Temp;Humidity;BMP_temperature;BMP_pressure;BME280_temperature;BME280_humidity;BME280_pressure;Samples;Min_cycle;Max_cycle;Signal;HPM_P1;HPM_P2
2021/12/16 00:03:40;;;;;;;6.73;5.20;;;10.20;99.90;;;;;;5071492;28;20623;-78
2021/12/16 00:09:00;;;;;;;10.03;5.20;;;10.20;99.90;;;;;;5073467;28;20723;-76
2021/12/16 00:31:15;;;;;;;8.10;5.40;;;10.20;99.90;;;;;;5077242;28;20648;-77
2021/12/16 00:33:44;;;;;;;6.43;5.20;;;10.10;99.90;;;;;;5073579;28;20671;-75
2021/12/16 00:36:12;;;;;;;11.77;5.90;;;10.10;99.90;;;;;;5074912;28;20628;-76
2021/12/16 00:38:42;;;;;;;9.70;6.30;;;10.10;99.90;;;;;;5075789;28;20609;-78
2021/12/16 00:41:08;;;;;;;7.20;4.90;;;10.10;99.90;;;;;;5071754;28;20910;-78
2021/12/16 00:43:48;;;;;;;8.57;5.80;;;10.10;99.90;;;;;;5057999;28;20637;-77
2021/12/16 00:46:30;;;;;;;8.50;5.57;;;10.20;99.90;;;;;;5057145;28;20604;-77
2021/12/16 00:49:22;;;;;;;10.63;6.60;;;10.10;99.90;;;;;;5078458;28;20595;-76
2021/12/16 00:54:35;;;;;;;9.10;5.77;;;10.10;99.90;;;;;;5077382;28;20969;-76
2021/12/16 00:57:07;;;;;;;8.40;6.40;;;10.10;99.90;;;;;;5073739;28;20597;-76
2021/12/16 00:59:37;;;;;;;9.03;6.77;;;10.10;99.90;;;;;;5055689;28;20657;-74
2021/12/16 01:02:35;;;;;;;9.90;6.87;;;10.10;99.90;;;;;;5065404;28;20814;-77
2021/12/16 01:35:25;;;;;;;10.33;8.23;;;10.10;99.90;;;;;;5069827;28;20684;-78
2021/12/16 01:46:27;;;;;;;14.10;9.50;;;10.10;99.90;;;;;;5070762;28;20588;-76
2021/12/16 01:51:41;;;;;;;12.00;8.33;;;10.10;99.90;;;;;;5070225;28;20812;-77
2021/12/16 01:59:36;;;;;;;15.83;9.23;;;10.10;99.90;;;;;;5071767;28;20630;-77
2021/12/16 02:02:23;;;;;;;17.50;9.37;;;10.10;99.90;;;;;;5073431;28;21079;-77
2021/12/16 02:05:30;;;;;;;15.83;9.70;;;10.10;99.90;;;;;;5072649;28;20632;-79
2021/12/16 02:10:14;;;;;;;20.10;10.73;;;10.10;99.90;;;;;;5072966;28;20764;-78
2021/12/16 02:29:20;;;;;;;19.30;10.40;;;10.10;99.90;;;;;;5070142;28;20605;-76
2021/12/16 02:34:59;;;;;;;15.43;10.33;;;10.20;99.90;;;;;;5067289;28;20655;-78
2021/12/16 02:37:29;;;;;;;18.00;11.10;;;10.20;99.90;;;;;;5070771;28;20762;-77
2021/12/16 02:39:55;;;;;;;23.70;11.70;;;10.10;99.90;;;;;;5054928;28;21016;-77
2021/12/16 02:42:33;;;;;;;22.03;12.10;;;10.10;99.90;;;;;;5056712;28;20690;-77
2021/12/16 02:50:11;;;;;;;19.10;12.23;;;10.20;99.90;;;;;;5069284;28;20258;-77
2021/12/16 02:52:37;;;;;;;18.90;12.40;;;10.10;99.90;;;;;;5071300;28;20653;-76
2021/12/16 02:55:05;;;;;;;21.70;12.37;;;10.00;99.90;;;;;;5068182;28;20688;-76
2021/12/16 02:57:35;;;;;;;24.60;12.83;;;10.00;99.90;;;;;;5062585;28;20187;-75
2021/12/16 03:00:04;;;;;;;19.73;11.87;;;10.10;99.90;;;;;;5066181;28;20719;-77
2021/12/16 03:02:29;;;;;;;24.57;12.57;;;10.10;99.90;;;;;;5071224;28;20738;-78
2021/12/16 03:04:55;;;;;;;18.93;12.37;;;10.10;99.90;;;;;;5064641;28;20657;-76
2021/12/16 03:07:24;;;;;;;22.93;13.17;;;10.10;99.90;;;;;;5066710;28;20198;-77
2021/12/16 03:18:14;;;;;;;24.40;14.40;;;10.00;99.90;;;;;;5076736;28;21088;-78
2021/12/16 03:20:54;;;;;;;23.20;13.87;;;10.00;99.90;;;;;;5069063;28;20640;-78
2021/12/16 03:23:46;;;;;;;24.47;15.00;;;10.00;99.90;;;;;;5071222;28;20780;-77
2021/12/16 03:34:56;;;;;;;22.27;14.23;;;10.00;99.90;;;;;;5072051;28;21205;-76
2021/12/16 03:37:24;;;;;;;25.37;14.03;;;10.00;99.90;;;;;;5074938;28;20624;-77
2021/12/16 03:39:59;;;;;;;29.27;14.93;;;10.10;99.90;;;;;;5050749;28;20633;-78
2021/12/16 03:42:30;;;;;;;25.97;14.50;;;10.00;99.90;;;;;;5073587;28;20641;-77
2021/12/16 03:45:05;;;;;;;23.27;14.47;;;10.00;99.90;;;;;;5073432;28;20806;-81
2021/12/16 03:47:45;;;;;;;25.77;15.10;;;10.00;99.90;;;;;;5079453;28;20682;-79
2021/12/16 03:50:15;;;;;;;29.07;15.73;;;10.00;99.90;;;;;;5079753;28;20752;-81
2021/12/16 03:52:48;;;;;;;24.93;14.43;;;10.00;99.90;;;;;;5076308;28;20602;-81
2021/12/16 03:55:14;;;;;;;29.53;15.83;;;10.00;99.90;;;;;;5061512;28;20652;-80
2021/12/16 03:57:40;;;;;;;28.60;15.50;;;10.00;99.90;;;;;;5058058;28;20622;-80
2021/12/16 04:00:11;;;;;;;24.47;15.57;;;10.10;99.90;;;;;;5073877;28;22662;-80
2021/12/16 04:02:38;;;;;;;31.90;16.47;;;10.10;99.90;;;;;;5085865;28;20632;-81
2021/12/16 04:05:07;;;;;;;32.50;16.53;;;10.10;99.90;;;;;;5081808;28;20643;-79
2021/12/16 04:07:40;;;;;;;29.40;15.87;;;10.00;99.90;;;;;;5047131;28;21216;-79
2021/12/16 04:10:12;;;;;;;27.90;15.77;;;10.00;99.90;;;;;;5076511;28;21185;-78
2021/12/16 04:12:37;;;;;;;26.90;17.13;;;10.00;99.90;;;;;;5075600;28;20904;-80
2021/12/16 04:15:07;;;;;;;33.23;16.60;;;10.00;99.90;;;;;;5060464;28;20712;-79
2021/12/16 04:17:35;;;;;;;31.13;17.00;;;10.00;99.90;;;;;;5075140;28;20179;-79
2021/12/16 04:20:03;;;;;;;27.37;17.80;;;10.00;99.90;;;;;;5077025;28;21365;-79
2021/12/16 04:22:36;;;;;;;31.97;17.80;;;10.00;99.90;;;;;;5073762;28;20637;-80
2021/12/16 04:25:06;;;;;;;32.70;19.30;;;9.90;99.90;;;;;;5057901;28;20645;-80
2021/12/16 04:27:34;;;;;;;29.13;16.20;;;9.90;99.90;;;;;;5073224;28;20943;-80
2021/12/16 04:30:00;;;;;;;33.93;18.07;;;10.00;99.90;;;;;;5076698;28;20636;-78
2021/12/16 04:32:26;;;;;;;30.00;17.83;;;9.90;99.90;;;;;;5076229;28;20623;-80
2021/12/16 04:34:51;;;;;;;33.07;18.70;;;9.90;99.90;;;;;;5073541;28;20273;-79
2021/12/16 04:37:17;;;;;;;29.37;18.13;;;10.00;99.90;;;;;;5057823;28;20639;-79
2021/12/16 04:39:48;;;;;;;31.67;16.57;;;10.00;99.90;;;;;;5075944;28;20227;-80
2021/12/16 04:42:19;;;;;;;35.40;19.97;;;10.00;99.90;;;;;;5073898;28;20222;-81
2021/12/16 04:44:44;;;;;;;34.43;19.33;;;9.90;99.90;;;;;;5079423;28;20641;-80
2021/12/16 04:47:11;;;;;;;36.57;16.67;;;9.90;99.90;;;;;;5074016;28;20767;-80
2021/12/16 04:49:37;;;;;;;32.93;17.63;;;9.90;99.90;;;;;;5069865;28;20226;-80
2021/12/16 04:52:11;;;;;;;33.37;16.60;;;9.90;99.90;;;;;;5051132;28;20617;-79
2021/12/16 04:54:43;;;;;;;42.93;18.07;;;10.00;99.90;;;;;;5056695;28;20664;-82
2021/12/16 04:57:09;;;;;;;33.13;17.90;;;10.00;99.90;;;;;;5075969;28;21118;-79
2021/12/16 04:59:39;;;;;;;37.50;19.57;;;9.90;99.90;;;;;;5076252;28;20759;-79
2021/12/16 05:02:13;;;;;;;38.07;18.70;;;10.00;99.90;;;;;;5073735;28;20665;-80
2021/12/16 05:04:42;;;;;;;34.13;18.20;;;10.00;99.90;;;;;;5075625;28;21327;-80
2021/12/16 05:07:09;;;;;;;39.10;19.43;;;10.00;99.90;;;;;;5079292;28;20619;-82
2021/12/16 05:12:15;;;;;;;37.87;21.13;;;10.00;99.90;;;;;;5080768;28;20716;-80
2021/12/16 05:14:43;;;;;;;35.90;19.87;;;10.00;99.90;;;;;;5079214;28;20671;-80
2021/12/16 05:17:22;;;;;;;36.90;20.80;;;10.00;99.90;;;;;;5071793;28;20716;-80
2021/12/16 05:19:51;;;;;;;37.70;20.93;;;10.00;99.90;;;;;;5074462;28;21030;-79
2021/12/16 05:24:16;;;;;;;37.63;18.70;;;10.00;99.90;;;;;;5073381;28;20645;-80
2021/12/16 05:25:08;;;;;;;36.50;19.73;;;10.00;99.90;;;;;;5077258;28;20656;-80
2021/12/16 05:27:33;;;;;;;40.73;20.03;;;10.00;99.90;;;;;;5074633;28;20609;-80
2021/12/16 05:29:59;;;;;;;36.43;18.43;;;9.90;99.90;;;;;;5057334;28;21200;-80
2021/12/16 05:32:27;;;;;;;37.70;19.17;;;9.90;99.90;;;;;;5054923;28;20275;-79
2021/12/16 05:34:55;;;;;;;34.37;18.67;;;9.90;99.90;;;;;;5070553;28;20219;-79
2021/12/16 05:37:21;;;;;;;34.33;18.33;;;10.00;99.90;;;;;;5070913;28;20616;-79
2021/12/16 05:39:46;;;;;;;37.63;18.80;;;10.00;99.90;;;;;;5072263;28;21007;-80
2021/12/16 05:42:15;;;;;;;32.57;17.27;;;10.00;99.90;;;;;;5072169;28;20630;-80
2021/12/16 05:44:43;;;;;;;34.63;18.03;;;10.00;99.90;;;;;;5072983;28;20306;-80
2021/12/16 05:47:09;;;;;;;35.10;19.93;;;10.00;99.90;;;;;;5057462;28;20624;-82
2021/12/16 05:49:34;;;;;;;31.13;17.27;;;10.00;99.90;;;;;;5056674;28;20633;-82
2021/12/16 05:52:00;;;;;;;31.27;19.27;;;10.00;99.90;;;;;;5071677;28;20693;-81
2021/12/16 05:54:28;;;;;;;29.63;17.17;;;10.00;99.90;;;;;;5076455;28;20227;-79
2021/12/16 05:56:54;;;;;;;36.30;18.70;;;10.00;99.90;;;;;;5081124;28;20697;-80
2021/12/16 05:59:19;;;;;;;30.93;16.80;;;10.00;99.90;;;;;;5080734;28;20617;-80
2021/12/16 06:01:49;;;;;;;32.33;17.00;;;10.00;99.90;;;;;;5061528;28;20223;-80
2021/12/16 06:04:15;;;;;;;26.23;14.90;;;10.00;99.90;;;;;;5055987;28;20644;-81
2021/12/16 06:06:41;;;;;;;29.50;17.20;;;10.00;99.90;;;;;;5078408;28;20618;-79
2021/12/16 06:09:08;;;;;;;28.17;16.00;;;10.00;99.90;;;;;;5071054;28;20636;-80
2021/12/16 06:11:38;;;;;;;25.87;16.90;;;10.00;99.90;;;;;;5055905;28;20195;-82
2021/12/16 06:14:19;;;;;;;28.60;16.90;;;10.00;99.90;;;;;;5049339;28;20656;-84
2021/12/16 06:27:49;;;;;;;26.47;14.70;;;10.00;99.90;;;;;;5086936;28;20704;-83
2021/12/16 06:30:20;;;;;;;28.50;14.70;;;10.00;99.90;;;;;;5088188;28;20641;-85
2021/12/16 06:32:46;;;;;;;22.47;14.47;;;10.00;99.90;;;;;;5089369;28;20586;-82
2021/12/16 06:35:12;;;;;;;23.67;14.37;;;10.00;99.90;;;;;;5085096;28;21241;-80
2021/12/16 06:37:41;;;;;;;31.47;15.47;;;10.00;99.90;;;;;;5091635;28;21253;-80
2021/12/16 06:40:12;;;;;;;25.73;13.37;;;10.00;99.90;;;;;;5085606;28;21235;-82
2021/12/16 06:42:40;;;;;;;20.47;13.00;;;10.00;99.90;;;;;;5067480;28;20657;-84
2021/12/16 06:45:12;;;;;;;27.13;13.80;;;10.10;99.90;;;;;;5090418;28;20657;-83
2021/12/16 06:47:47;;;;;;;24.20;12.30;;;10.10;99.90;;;;;;5072755;28;20684;-81
2021/12/16 06:50:26;;;;;;;22.57;12.90;;;10.10;99.90;;;;;;5091132;28;20628;-83
2021/12/16 06:52:55;;;;;;;23.37;12.70;;;10.10;99.90;;;;;;5066848;28;20627;-80
2021/12/16 06:55:35;;;;;;;21.43;11.30;;;10.10;99.90;;;;;;5077367;28;20681;-80
2021/12/16 06:58:11;;;;;;;22.63;12.67;;;10.10;99.90;;;;;;5092328;28;20574;-84
2021/12/16 07:00:43;;;;;;;19.57;11.30;;;10.10;99.90;;;;;;5090327;28;20633;-82
2021/12/16 07:03:18;;;;;;;18.17;12.10;;;10.20;99.90;;;;;;5087689;28;20647;-80
2021/12/16 07:05:46;;;;;;;20.20;10.40;;;10.10;99.90;;;;;;5058475;28;20617;-86
2021/12/16 07:08:17;;;;;;;18.77;11.30;;;10.10;99.90;;;;;;5066560;28;20625;-83
2021/12/16 07:10:45;;;;;;;15.40;9.80;;;10.10;99.90;;;;;;5092623;28;20617;-84
2021/12/16 07:13:19;;;;;;;20.40;10.87;;;10.10;99.90;;;;;;5087965;28;20622;-82
2021/12/16 07:15:47;;;;;;;17.50;10.33;;;10.10;99.90;;;;;;5092343;28;20586;-85
2021/12/16 07:18:13;;;;;;;19.23;11.70;;;10.10;99.90;;;;;;5069615;28;20613;-83
2021/12/16 07:20:38;;;;;;;19.80;9.80;;;10.20;99.90;;;;;;5074974;28;20743;-84
2021/12/16 07:23:06;;;;;;;16.37;10.20;;;10.20;99.90;;;;;;5093653;28;20286;-84
2021/12/16 07:25:32;;;;;;;18.30;10.67;;;10.20;99.90;;;;;;5095270;28;20295;-80
2021/12/16 07:27:58;;;;;;;21.67;10.27;;;10.20;99.90;;;;;;5076323;28;21038;-82
2021/12/16 07:30:24;;;;;;;19.43;9.80;;;10.20;99.90;;;;;;5091421;28;20644;-85
2021/12/16 07:32:50;;;;;;;16.33;10.10;;;10.00;99.90;;;;;;5079864;28;20190;-80
2021/12/16 07:35:21;;;;;;;17.73;9.53;;;10.20;99.90;;;;;;5074984;28;20238;-83
2021/12/16 07:37:48;;;;;;;20.93;13.23;;;10.30;99.90;;;;;;5075072;28;21012;-80
2021/12/16 07:40:17;;;;;;;16.97;10.27;;;10.30;99.90;;;;;;5074384;28;20716;-80
2021/12/16 07:43:10;;;;;;;17.50;10.00;;;10.20;99.90;;;;;;5058999;28;20641;-80
2021/12/16 07:45:38;;;;;;;22.43;10.73;;;10.20;99.90;;;;;;5075266;28;20640;-80
2021/12/16 07:48:04;;;;;;;13.97;9.63;;;10.30;99.90;;;;;;5053943;28;20935;-80
2021/12/16 07:50:30;;;;;;;18.70;10.90;;;10.30;99.90;;;;;;5073886;28;20715;-79
2021/12/16 07:52:56;;;;;;;18.10;10.37;;;10.30;99.90;;;;;;5075287;28;20618;-80
2021/12/16 07:55:22;;;;;;;19.40;10.50;;;10.30;99.90;;;;;;5076163;28;20253;-80
2021/12/16 07:57:48;;;;;;;20.37;9.77;;;10.30;99.90;;;;;;5075975;28;20616;-80
2021/12/16 08:00:20;;;;;;;16.67;10.20;;;10.30;99.90;;;;;;5074824;28;20636;-81
2021/12/16 08:02:46;;;;;;;16.50;10.07;;;10.30;99.90;;;;;;5073964;28;20203;-80
2021/12/16 08:05:12;;;;;;;14.60;8.67;;;10.30;99.90;;;;;;5076123;28;20641;-80
2021/12/16 08:07:39;;;;;;;22.47;10.10;;;10.30;99.90;;;;;;5073371;28;20324;-80
2021/12/16 08:10:12;;;;;;;17.07;9.13;;;10.30;99.90;;;;;;5071334;28;20641;-80
2021/12/16 08:12:37;;;;;;;17.60;10.17;;;10.30;99.90;;;;;;5067424;28;20620;-80
2021/12/16 08:15:04;;;;;;;20.40;9.67;;;10.30;99.90;;;;;;5075317;28;20660;-83
2021/12/16 08:17:30;;;;;;;18.00;9.53;;;10.40;99.90;;;;;;5058017;28;20573;-80
2021/12/16 08:19:55;;;;;;;17.87;9.90;;;10.40;99.90;;;;;;5051035;28;20620;-82
2021/12/16 08:22:21;;;;;;;15.90;9.87;;;10.40;99.90;;;;;;5081069;28;20288;-79
2021/12/16 08:24:47;;;;;;;16.13;9.60;;;10.40;99.90;;;;;;5079408;28;20713;-79
2021/12/16 08:27:13;;;;;;;21.70;10.13;;;10.40;99.90;;;;;;5061516;28;20617;-80
2021/12/16 08:29:41;;;;;;;19.33;8.70;;;10.40;99.90;;;;;;5061196;28;20215;-80
2021/12/16 08:32:08;;;;;;;13.03;7.57;;;10.40;99.90;;;;;;5071758;28;20712;-80
2021/12/16 08:34:37;;;;;;;14.97;7.80;;;10.40;99.90;;;;;;5077944;28;20656;-80
2021/12/16 08:37:06;;;;;;;12.50;8.40;;;10.40;99.90;;;;;;5052791;28;20636;-80
2021/12/16 08:39:32;;;;;;;11.83;7.60;;;10.40;99.90;;;;;;5079294;28;20655;-79
2021/12/16 08:41:58;;;;;;;10.57;7.00;;;10.40;99.90;;;;;;5079918;28;20733;-79
2021/12/16 08:44:25;;;;;;;11.93;7.30;;;10.40;99.90;;;;;;5077072;28;20631;-83
2021/12/16 08:46:54;;;;;;;10.67;6.63;;;10.40;99.90;;;;;;5077411;28;20609;-80
2021/12/16 08:49:20;;;;;;;11.47;6.67;;;10.40;99.90;;;;;;5077735;28;21189;-79
2021/12/16 08:51:50;;;;;;;12.63;6.30;;;10.70;99.90;;;;;;5080408;28;20594;-81
2021/12/16 08:54:17;;;;;;;10.50;6.13;;;10.50;99.90;;;;;;5078043;28;20676;-80
2021/12/16 08:56:44;;;;;;;9.10;5.70;;;10.50;99.90;;;;;;5051087;28;21006;-81
2021/12/16 08:59:11;;;;;;;9.73;5.20;;;10.70;99.90;;;;;;5058091;28;20616;-82
2021/12/16 09:01:44;;;;;;;7.00;5.10;;;10.50;99.90;;;;;;5075449;28;20620;-85
2021/12/16 09:04:11;;;;;;;9.53;5.30;;;10.50;99.90;;;;;;5073896;28;20641;-82
2021/12/16 09:06:37;;;;;;;8.93;4.83;;;10.50;99.90;;;;;;5075416;28;21045;-85
2021/12/16 09:09:07;;;;;;;7.97;5.83;;;10.50;99.90;;;;;;5073051;28;20609;-80
2021/12/16 09:11:38;;;;;;;7.53;5.27;;;10.50;99.90;;;;;;5077786;28;21156;-83
2021/12/16 09:14:03;;;;;;;6.67;4.43;;;10.50;99.90;;;;;;5075236;28;20717;-80
2021/12/16 09:16:31;;;;;;;7.17;5.03;;;10.50;99.90;;;;;;5074450;28;20705;-82
2021/12/16 09:18:58;;;;;;;8.13;4.57;;;10.50;99.90;;;;;;5069476;28;20187;-80
2021/12/16 09:21:28;;;;;;;5.90;4.30;;;10.60;99.90;;;;;;5072571;28;20629;-79
2021/12/16 09:23:55;;;;;;;9.97;4.30;;;10.60;99.90;;;;;;5050374;28;20693;-80
2021/12/16 09:26:23;;;;;;;5.90;3.80;;;10.60;99.90;;;;;;5065951;28;21146;-83
2021/12/16 09:28:50;;;;;;;6.00;3.43;;;10.60;99.90;;;;;;5076329;28;20700;-82
2021/12/16 09:31:19;;;;;;;6.70;3.23;;;10.70;99.90;;;;;;5055659;28;20629;-79
2021/12/16 09:33:49;;;;;;;4.77;3.43;;;10.70;99.90;;;;;;5079152;28;21185;-79
2021/12/16 09:36:18;;;;;;;5.53;3.30;;;10.70;99.90;;;;;;5068284;28;20697;-81
2021/12/16 09:38:46;;;;;;;4.00;3.07;;;10.70;99.90;;;;;;5075284;28;20625;-79
2021/12/16 09:41:12;;;;;;;5.07;3.53;;;10.70;99.90;;;;;;5072873;28;21000;-79
2021/12/16 09:43:43;;;;;;;5.90;3.60;;;10.80;99.90;;;;;;5077391;28;20740;-79
2021/12/16 09:46:12;;;;;;;9.17;3.90;;;10.80;99.90;;;;;;5079101;28;20183;-83
2021/12/16 09:48:39;;;;;;;7.20;3.90;;;10.80;99.90;;;;;;5076504;28;20619;-80
2021/12/16 09:51:08;;;;;;;5.70;3.50;;;10.80;99.90;;;;;;5049498;28;20686;-81
2021/12/16 09:53:36;;;;;;;4.67;3.70;;;10.80;99.90;;;;;;5065246;28;21050;-79
2021/12/16 09:56:04;;;;;;;5.63;3.83;;;10.80;99.90;;;;;;5073822;28;20613;-79
2021/12/16 09:58:35;;;;;;;6.63;4.10;;;10.80;99.90;;;;;;5056956;28;20606;-79
2021/12/16 10:01:02;;;;;;;4.87;3.83;;;10.80;99.90;;;;;;5068191;28;20633;-79
2021/12/16 10:03:28;;;;;;;7.23;3.70;;;10.80;99.90;;;;;;5057177;28;20653;-81
2021/12/16 10:05:54;;;;;;;5.07;3.73;;;10.80;99.90;;;;;;5055381;28;20683;-79
2021/12/16 10:08:20;;;;;;;9.80;4.63;;;10.80;99.90;;;;;;5074531;28;20603;-82
2021/12/16 10:10:46;;;;;;;6.10;4.07;;;10.80;99.90;;;;;;5070923;28;20268;-78
2021/12/16 10:13:19;;;;;;;6.27;3.87;;;10.80;99.90;;;;;;5074169;28;20613;-81
2021/12/16 10:18:17;;;;;;;5.63;3.70;;;10.80;99.90;;;;;;5075647;28;20681;-79
2021/12/16 10:20:51;;;;;;;6.33;3.20;;;10.80;99.90;;;;;;5052801;28;20339;-80
2021/12/16 10:23:41;;;;;;;6.27;3.37;;;10.80;99.90;;;;;;5072864;28;20618;-79
2021/12/16 10:26:16;;;;;;;7.47;3.70;;;10.80;99.90;;;;;;5042383;28;20616;-79
2021/12/16 10:28:45;;;;;;;6.57;3.13;;;10.70;99.90;;;;;;5071728;28;20608;-79
2021/12/16 10:31:19;;;;;;;6.17;3.10;;;10.70;99.90;;;;;;5066951;28;21453;-82
2021/12/16 10:33:50;;;;;;;4.60;3.00;;;10.80;99.90;;;;;;5066742;28;20636;-81
2021/12/16 10:36:31;;;;;;;9.70;3.10;;;10.80;99.90;;;;;;5076337;28;20609;-79
2021/12/16 10:39:03;;;;;;;8.43;3.50;;;10.80;99.90;;;;;;5074019;28;21176;-79
2021/12/16 10:41:38;;;;;;;5.33;2.83;;;10.90;99.90;;;;;;5070969;28;20641;-80
2021/12/16 10:44:13;;;;;;;6.03;3.23;;;10.90;99.90;;;;;;5072621;28;20658;-79
2021/12/16 10:47:02;;;;;;;6.00;3.80;;;11.00;99.90;;;;;;5073734;28;20647;-79
2021/12/16 10:49:42;;;;;;;5.03;3.80;;;11.00;99.90;;;;;;5075153;28;21250;-83
2021/12/16 10:52:17;;;;;;;7.70;3.50;;;11.00;99.90;;;;;;5076805;28;20628;-79
2021/12/16 10:54:45;;;;;;;13.43;4.97;;;11.00;99.90;;;;;;5031124;28;1311286;-79
2021/12/16 10:57:17;;;;;;;8.50;4.03;;;11.10;99.90;;;;;;5077827;28;20260;-78
2021/12/16 10:59:50;;;;;;;6.53;5.03;;;11.10;99.90;;;;;;5073851;28;21027;-79
2021/12/16 11:02:30;;;;;;;8.53;5.10;;;11.10;99.90;;;;;;5068267;28;20646;-85
2021/12/16 11:05:19;;;;;;;8.80;6.43;;;11.20;99.90;;;;;;5054868;28;21207;-77
2021/12/16 11:07:52;;;;;;;9.63;7.43;;;11.20;99.90;;;;;;5070308;28;21251;-78
2021/12/16 11:10:21;;;;;;;12.40;7.13;;;11.40;99.90;;;;;;5083394;28;20633;-80
2021/12/16 11:12:52;;;;;;;10.97;7.30;;;11.20;99.90;;;;;;5056457;28;20628;-82
2021/12/16 11:15:34;;;;;;;11.50;7.27;;;11.10;99.90;;;;;;5072259;28;20655;-81
2021/12/16 11:18:16;;;;;;;10.20;7.40;;;11.20;99.90;;;;;;5060795;28;20624;-79
2021/12/16 11:20:56;;;;;;;10.60;7.43;;;11.10;99.90;;;;;;5079520;28;20645;-79
2021/12/16 11:23:24;;;;;;;13.27;7.07;;;11.20;99.90;;;;;;5077287;28;20649;-79
2021/12/16 11:25:56;;;;;;;14.63;7.40;;;11.20;99.90;;;;;;5071785;28;20628;-79
2021/12/16 11:28:35;;;;;;;10.33;5.60;;;11.20;99.90;;;;;;5058051;28;21155;-79
2021/12/16 11:31:10;;;;;;;7.73;5.50;;;11.20;99.90;;;;;;5065229;28;21193;-79
2021/12/16 11:33:42;;;;;;;10.50;6.23;;;11.20;99.90;;;;;;5073013;28;20669;-79
2021/12/16 11:36:14;;;;;;;9.43;5.50;;;11.50;99.90;;;;;;5048217;28;20639;-79
2021/12/16 11:38:44;;;;;;;12.73;5.33;;;11.30;99.90;;;;;;5074218;28;20625;-82
2021/12/16 11:41:28;;;;;;;11.47;4.90;;;11.30;99.90;;;;;;5072868;28;20634;-80
2021/12/16 11:43:57;;;;;;;9.80;4.93;;;11.30;99.90;;;;;;5052059;28;21078;-80
2021/12/16 11:46:48;;;;;;;9.73;5.00;;;11.30;99.90;;;;;;5058038;28;21033;-79
2021/12/16 11:49:26;;;;;;;10.80;4.80;;;11.20;99.90;;;;;;5075838;28;20597;-80
2021/12/16 11:51:58;;;;;;;8.60;4.70;;;11.20;99.90;;;;;;5075028;28;21084;-79
2021/12/16 11:54:34;;;;;;;8.97;5.73;;;11.20;99.90;;;;;;5045333;28;21035;-79
2021/12/16 11:57:19;;;;;;;9.20;5.20;;;11.30;99.90;;;;;;5082454;28;20596;-80
2021/12/16 11:59:47;;;;;;;8.17;4.67;;;11.30;99.90;;;;;;5078663;28;21223;-79
2021/12/16 12:02:31;;;;;;;9.23;4.77;;;11.60;99.90;;;;;;5077934;28;20751;-79
2021/12/16 12:05:19;;;;;;;8.40;4.50;;;11.30;99.90;;;;;;5067550;28;21286;-80
2021/12/16 12:07:55;;;;;;;11.03;5.20;;;11.50;99.90;;;;;;5043275;28;20657;-79
2021/12/16 12:10:37;;;;;;;10.47;4.20;;;11.40;99.90;;;;;;5062559;28;20639;-77
2021/12/16 12:13:07;;;;;;;12.97;4.80;;;11.40;99.90;;;;;;5072065;28;20780;-81
2021/12/16 12:15:34;;;;;;;11.83;4.40;;;11.50;99.90;;;;;;5073718;28;20729;-79
2021/12/16 12:18:00;;;;;;;11.00;5.00;;;11.50;99.90;;;;;;5070203;28;20712;-81
2021/12/16 12:20:36;;;;;;;12.20;5.37;;;11.50;99.90;;;;;;5068645;28;20644;-79
2021/12/16 12:23:01;;;;;;;8.80;5.03;;;11.60;99.90;;;;;;5067772;28;20320;-78
2021/12/16 12:25:27;;;;;;;6.03;4.10;;;11.60;99.90;;;;;;5047661;28;20775;-89
2021/12/16 12:27:53;;;;;;;9.53;4.23;;;11.70;99.90;;;;;;5078048;28;20496;-91
2021/12/16 12:30:19;;;;;;;12.10;5.40;;;11.80;99.90;;;;;;5078247;28;20215;-88
2021/12/16 12:32:48;;;;;;;10.70;3.80;;;11.90;99.90;;;;;;5061835;28;20183;-86
2021/12/16 12:35:32;;;;;;;5.97;2.90;;;12.00;99.90;;;;;;5062678;28;20671;-85
2021/12/16 12:38:00;;;;;;;6.53;3.30;;;12.10;99.90;;;;;;5059223;28;22536;-89
2021/12/16 12:40:39;;;;;;;8.60;3.67;;;12.10;99.90;;;;;;5085749;28;20664;-86
2021/12/16 12:43:09;;;;;;;7.10;3.10;;;12.10;99.90;;;;;;5064771;28;20766;-88
2021/12/16 12:45:38;;;;;;;6.40;3.03;;;12.10;99.90;;;;;;5064392;28;20618;-90
2021/12/16 12:48:09;;;;;;;9.20;2.70;;;12.10;99.90;;;;;;5082255;28;20613;-86
2021/12/16 12:50:39;;;;;;;8.37;2.67;;;12.10;99.90;;;;;;5063536;28;21123;-88
2021/12/16 12:53:32;;;;;;;8.30;2.97;;;12.00;99.90;;;;;;5081138;28;20626;-90
2021/12/16 12:56:16;;;;;;;9.60;3.10;;;12.00;99.90;;;;;;5072542;28;20757;-80
2021/12/16 12:59:06;;;;;;;10.27;3.00;;;12.10;99.90;;;;;;5084468;28;20661;-88
2021/12/16 13:01:35;;;;;;;8.37;2.87;;;12.00;99.90;;;;;;5072611;28;20634;-82
2021/12/16 13:04:07;;;;;;;4.83;2.60;;;12.00;99.90;;;;;;5073844;28;20720;-88
2021/12/16 13:06:50;;;;;;;6.33;3.00;;;12.00;99.90;;;;;;5064698;28;20640;-87
2021/12/16 13:09:29;;;;;;;7.13;2.47;;;12.30;99.90;;;;;;5064124;28;21001;-86
2021/12/16 13:11:55;;;;;;;8.87;2.73;;;12.30;99.90;;;;;;5070327;28;20620;-77
2021/12/16 13:14:36;;;;;;;6.53;2.80;;;12.00;99.90;;;;;;5066272;28;20744;-79
2021/12/16 13:26:01;;;;;;;8.50;2.63;;;11.90;99.90;;;;;;5083944;28;20669;-77
2021/12/16 13:28:38;;;;;;;8.03;2.83;;;11.90;99.90;;;;;;5069170;28;20614;-76
2021/12/16 13:31:24;;;;;;;6.77;3.27;;;11.90;99.90;;;;;;5059044;28;20707;-79
2021/12/16 13:33:56;;;;;;;8.80;2.70;;;11.80;99.90;;;;;;5058043;28;20652;-79
2021/12/16 13:36:46;;;;;;;6.57;3.40;;;11.80;99.90;;;;;;5057903;28;20690;-76
2021/12/16 13:39:15;;;;;;;7.80;2.77;;;11.80;99.90;;;;;;5041572;28;20659;-76
2021/12/16 13:42:04;;;;;;;6.47;2.70;;;11.80;99.90;;;;;;5060519;28;20635;-77
2021/12/16 13:45:00;;;;;;;7.97;2.60;;;11.80;99.90;;;;;;5060168;28;21141;-78
2021/12/16 13:47:48;;;;;;;6.13;2.40;;;11.70;99.90;;;;;;5031952;28;20649;-80
2021/12/16 14:05:20;;;;;;;8.73;3.03;;;11.40;99.90;;;;;;5070244;28;21419;-78
2021/12/16 14:07:55;;;;;;;9.40;2.50;;;11.30;99.90;;;;;;5072978;28;20584;-79
2021/12/16 14:10:49;;;;;;;11.40;3.37;;;11.30;99.90;;;;;;5058062;28;20649;-80
2021/12/16 14:16:55;;;;;;;9.80;4.33;;;11.20;99.90;;;;;;5056101;28;20667;-82
2021/12/16 14:25:26;;;;;;;5.50;3.30;;;11.10;99.90;;;;;;5072157;28;20703;-85
2021/12/16 14:34:33;;;;;;;11.00;3.50;;;11.00;99.90;;;;;;5068528;28;20663;-80
2021/12/16 14:42:09;;;;;;;9.87;4.40;;;10.70;99.90;;;;;;5069696;28;20622;-82
2021/12/16 14:50:27;;;;;;;9.40;3.83;;;10.50;99.90;;;;;;5075608;28;20705;-79
2021/12/16 14:52:54;;;;;;;11.03;4.40;;;10.40;99.90;;;;;;5074072;28;20621;-79
2021/12/16 14:55:20;;;;;;;10.90;4.67;;;10.40;99.90;;;;;;5075919;28;21050;-80
2021/12/16 14:57:50;;;;;;;9.03;4.30;;;10.30;99.90;;;;;;5070037;28;20620;-80
2021/12/16 15:00:33;;;;;;;11.67;4.40;;;10.30;99.90;;;;;;5059592;28;20633;-80
2021/12/16 15:03:12;;;;;;;10.10;3.83;;;10.30;99.90;;;;;;5044854;28;21026;-80
2021/12/16 15:05:44;;;;;;;4.97;4.00;;;10.20;99.90;;;;;;5069597;28;20608;-81
2021/12/16 15:08:22;;;;;;;10.53;4.60;;;10.20;99.90;;;;;;5067375;28;20633;-82
2021/12/16 15:10:47;;;;;;;9.67;3.93;;;10.10;99.90;;;;;;5062220;28;20668;-82
2021/12/16 15:13:27;;;;;;;14.40;5.03;;;10.10;99.90;;;;;;5072510;28;20737;-80
2021/12/16 15:35:49;;;;;;;7.20;3.40;;;10.00;99.90;;;;;;5065552;28;21273;-82
2021/12/16 15:43:08;;;;;;;7.90;4.00;;;9.90;99.90;;;;;;4970898;28;20229;-79
2021/12/16 15:45:44;;;;;;;7.30;3.80;;;9.80;99.90;;;;;;5058385;28;21797;-82
2021/12/16 15:48:21;;;;;;;6.63;3.20;;;9.80;99.90;;;;;;5044621;28;20629;-83
2021/12/16 15:51:06;;;;;;;8.97;3.73;;;9.80;99.90;;;;;;5063729;28;21196;-83
2021/12/16 15:53:49;;;;;;;12.73;3.50;;;9.80;99.90;;;;;;5050033;28;20689;-79
2021/12/16 15:56:18;;;;;;;7.33;3.43;;;9.70;99.90;;;;;;5040564;28;21010;-79
2021/12/16 15:58:51;;;;;;;7.90;3.50;;;9.70;99.90;;;;;;5064441;28;20624;-80
2021/12/16 16:01:21;;;;;;;9.00;3.70;;;9.70;99.90;;;;;;5064479;28;20660;-80
2021/12/16 16:03:47;;;;;;;5.60;2.83;;;9.70;99.90;;;;;;5044076;28;20733;-82
2021/12/16 16:06:14;;;;;;;8.70;4.27;;;9.70;99.90;;;;;;5056985;28;20617;-80
2021/12/16 16:08:46;;;;;;;8.57;3.97;;;9.70;99.90;;;;;;5041020;28;20580;-80
2021/12/16 16:11:17;;;;;;;8.53;4.00;;;9.70;99.90;;;;;;5077633;28;20629;-80
2021/12/16 16:13:48;;;;;;;9.43;4.17;;;9.60;99.90;;;;;;5061209;28;20683;-80
2021/12/16 16:16:18;;;;;;;8.50;4.90;;;9.60;99.90;;;;;;5058870;28;20601;-81
2021/12/16 16:18:59;;;;;;;9.50;4.10;;;9.50;99.90;;;;;;5060960;28;20589;-80
2021/12/16 16:21:41;;;;;;;8.37;3.87;;;9.50;99.90;;;;;;5066932;28;20637;-81
2021/12/16 16:24:12;;;;;;;4.57;3.37;;;9.50;99.90;;;;;;5061926;28;20656;-81
2021/12/16 16:26:45;;;;;;;5.37;3.33;;;9.50;99.90;;;;;;5063803;28;20664;-81
2021/12/16 16:29:15;;;;;;;8.67;3.97;;;9.50;99.90;;;;;;5079499;28;20614;-81
2021/12/16 16:31:42;;;;;;;6.80;4.50;;;9.50;99.90;;;;;;5067642;28;20592;-81